Time;durP1;ratioP1;P1;durP2;ratioP2;P2;SDS_P1;SDS_P2;PMS_P1;PMS_P2;Temp;Humidity;BMP_temperature;BMP_pressure;BME280_temperature;BME280_humidity;BME280_pressure;Samples;Min_cycle;Max_cycle;Signal;HPM_P1;HPM_P2
2022/08/06 00:02:09;;;;;;;10.30;7.88;;;;;;;;;;5073822;28;20028;-56
2022/08/06 00:04:35;;;;;;;15.57;9.25;;;;;;;;;;5073337;28;20048;-55
2022/08/06 00:07:01;;;;;;;10.45;9.35;;;;;;;;;;5073405;28;20028;-56
2022/08/06 00:09:30;;;;;;;13.38;9.90;;;;;;;;;;5073660;28;20024;-56
2022/08/06 00:12:06;;;;;;;11.90;9.43;;;;;;;;;;5074319;28;20039;-56
2022/08/06 00:14:32;;;;;;;11.38;8.57;;;;;;;;;;5073513;28;20028;-56
2022/08/06 00:16:59;;;;;;;14.07;7.85;;;;;;;;;;5073102;28;20039;-56
2022/08/06 00:19:25;;;;;;;11.65;7.55;;;;;;;;;;5073458;28;20039;-56
2022/08/06 00:21:52;;;;;;;11.43;10.13;;;;;;;;;;5073792;28;20029;-54
2022/08/06 00:24:18;;;;;;;;;;;;;;;;;;5073889;28;20050;-55
2022/08/06 00:26:44;;;;;;;11.88;10.18;;;;;;;;;;5073244;28;19912;-54
2022/08/06 00:29:10;;;;;;;17.35;10.40;;;;;;;;;;5073247;28;20099;-56
2022/08/06 00:31:36;;;;;;;13.45;9.07;;;;;;;;;;5073258;28;20525;-54
2022/08/06 00:34:03;;;;;;;12.15;10.65;;;;;;;;;;5073265;28;20090;-56
2022/08/06 00:36:30;;;;;;;17.70;9.90;;;;;;;;;;5073142;28;20021;-55
2022/08/06 00:39:00;;;;;;;11.70;9.48;;;;;;;;;;5072860;28;20036;-55
2022/08/06 00:41:27;;;;;;;17.85;10.02;;;;;;;;;;5073438;28;20123;-57
2022/08/06 00:43:53;;;;;;;;;;;;;;;;;;5073429;28;20078;-55
2022/08/06 00:46:19;;;;;;;11.57;9.65;;;;;;;;;;5072728;28;19919;-57
2022/08/06 00:48:45;;;;;;;11.75;10.07;;;;;;;;;;5072767;28;20024;-56
2022/08/06 00:51:11;;;;;;;13.82;10.27;;;;;;;;;;5073024;28;20028;-56
2022/08/06 00:53:37;;;;;;;15.82;9.80;;;;;;;;;;5072750;28;20021;-56
2022/08/06 00:56:04;;;;;;;17.00;9.73;;;;;;;;;;5072091;28;20040;-56
2022/08/06 00:58:30;;;;;;;11.73;9.13;;;;;;;;;;5072271;28;20039;-57
2022/08/06 01:00:56;;;;;;;15.38;9.50;;;;;;;;;;5073114;28;20031;-57
2022/08/06 01:03:23;;;;;;;10.90;8.80;;;;;;;;;;5072712;28;20025;-56
2022/08/06 01:05:49;;;;;;;16.55;9.15;;;;;;;;;;5072672;28;20405;-54
2022/08/06 01:08:15;;;;;;;15.40;10.00;;;;;;;;;;5072194;28;20028;-55
2022/08/06 01:10:42;;;;;;;15.55;9.25;;;;;;;;;;5071568;28;20051;-54
2022/08/06 01:13:08;;;;;;;11.70;9.02;;;;;;;;;;5072295;28;20079;-54
2022/08/06 01:15:34;;;;;;;13.80;9.93;;;;;;;;;;5072151;28;20082;-53
2022/08/06 01:18:11;;;;;;;17.80;10.45;;;;;;;;;;5072053;28;20024;-56
2022/08/06 01:20:45;;;;;;;13.00;10.35;;;;;;;;;;5071916;28;20418;-56
2022/08/06 01:23:11;;;;;;;11.70;10.50;;;;;;;;;;5072294;28;20021;-57
2022/08/06 01:25:47;;;;;;;11.75;10.50;;;;;;;;;;5071900;28;20028;-57
2022/08/06 01:28:34;;;;;;;11.90;10.70;;;;;;;;;;5071672;28;20391;-56
2022/08/06 01:31:08;;;;;;;13.00;10.73;;;;;;;;;;5071740;28;20521;-56
2022/08/06 01:33:37;;;;;;;12.00;9.20;;;;;;;;;;5072188;28;20107;-53
2022/08/06 01:36:06;;;;;;;11.43;10.10;;;;;;;;;;5072098;28;20150;-57
2022/08/06 01:38:35;;;;;;;14.63;9.98;;;;;;;;;;5071603;28;20028;-54
2022/08/06 01:41:03;;;;;;;12.98;10.63;;;;;;;;;;5071930;28;20383;-57
2022/08/06 01:43:31;;;;;;;14.10;10.90;;;;;;;;;;5071820;28;20055;-56
2022/08/06 01:45:58;;;;;;;14.10;12.13;;;;;;;;;;5072069;28;20032;-57
2022/08/06 01:48:25;;;;;;;22.65;11.40;;;;;;;;;;5071456;28;20021;-57
2022/08/06 01:50:53;;;;;;;21.40;11.60;;;;;;;;;;5071797;28;20501;-57
2022/08/06 01:53:23;;;;;;;18.00;10.40;;;;;;;;;;5071620;28;20554;-56
2022/08/06 01:55:51;;;;;;;13.60;10.40;;;;;;;;;;5071400;28;20044;-56
2022/08/06 01:58:19;;;;;;;11.70;9.48;;;;;;;;;;5069838;28;20486;-56
2022/08/06 02:00:46;;;;;;;13.65;10.32;;;;;;;;;;5071874;28;20024;-57
2022/08/06 02:03:17;;;;;;;11.15;9.98;;;;;;;;;;5071562;28;20027;-56
2022/08/06 02:05:43;;;;;;;15.50;10.05;;;;;;;;;;5071526;28;20031;-56
2022/08/06 02:08:12;;;;;;;59.28;11.55;;;;;;;;;;5070594;28;20032;-57
2022/08/06 02:10:39;;;;;;;14.43;7.05;;;;;;;;;;5071468;28;20526;-56
2022/08/06 02:13:05;;;;;;;10.18;5.53;;;;;;;;;;5070526;28;20035;-57
2022/08/06 02:15:33;;;;;;;5.95;4.60;;;;;;;;;;5071395;28;20028;-55
2022/08/06 02:18:01;;;;;;;4.63;2.95;;;;;;;;;;5070903;28;20037;-56
2022/08/06 02:20:33;;;;;;;4.25;2.85;;;;;;;;;;5071580;28;20032;-57
2022/08/06 02:23:01;;;;;;;3.22;2.00;;;;;;;;;;5071240;28;20028;-56
2022/08/06 02:25:28;;;;;;;2.75;2.28;;;;;;;;;;5071488;28;20054;-57
2022/08/06 02:27:55;;;;;;;7.93;2.85;;;;;;;;;;5070890;28;20037;-56
2022/08/06 02:30:21;;;;;;;4.97;2.17;;;;;;;;;;5071399;28;20070;-56
2022/08/06 02:32:47;;;;;;;4.10;2.25;;;;;;;;;;5070993;28;20048;-57
2022/08/06 02:35:14;;;;;;;13.80;2.88;;;;;;;;;;5071479;28;20483;-57
2022/08/06 02:37:54;;;;;;;4.03;1.88;;;;;;;;;;5071115;28;20399;-55
2022/08/06 02:40:25;;;;;;;4.78;2.00;;;;;;;;;;5050176;28;20025;-56
2022/08/06 02:42:57;;;;;;;8.15;2.45;;;;;;;;;;5062032;28;20083;-57
2022/08/06 02:45:30;;;;;;;7.57;2.15;;;;;;;;;;5069790;28;20540;-55
2022/08/06 02:48:04;;;;;;;4.93;1.92;;;;;;;;;;5069564;28;20040;-57
2022/08/06 02:50:36;;;;;;;2.45;1.80;;;;;;;;;;5069967;28;20123;-57
2022/08/06 02:53:03;;;;;;;5.65;1.98;;;;;;;;;;5062063;28;20040;-56
2022/08/06 02:55:31;;;;;;;3.53;1.98;;;;;;;;;;5070312;28;20033;-56
2022/08/06 02:58:00;;;;;;;3.85;2.35;;;;;;;;;;5070907;28;20036;-53
2022/08/06 03:00:26;;;;;;;3.38;1.92;;;;;;;;;;5070832;28;20020;-57
2022/08/06 03:02:54;;;;;;;8.45;2.38;;;;;;;;;;5070895;28;20520;-56
2022/08/06 03:05:22;;;;;;;2.05;1.80;;;;;;;;;;5069738;28;20028;-56
2022/08/06 03:07:51;;;;;;;3.63;1.92;;;;;;;;;;5070671;28;20418;-56
2022/08/06 03:10:21;;;;;;;3.85;2.13;;;;;;;;;;5069271;28;20032;-56
2022/08/06 03:12:48;;;;;;;4.30;2.17;;;;;;;;;;5071169;28;20055;-57
2022/08/06 03:15:14;;;;;;;8.93;2.97;;;;;;;;;;5069718;28;20036;-56
2022/08/06 03:17:41;;;;;;;6.65;2.60;;;;;;;;;;5069611;28;20032;-56
2022/08/06 03:20:09;;;;;;;4.32;2.75;;;;;;;;;;5073776;28;20029;-55
2022/08/06 03:22:36;;;;;;;3.78;2.20;;;;;;;;;;5059712;28;20039;-57
2022/08/06 03:25:03;;;;;;;4.22;2.00;;;;;;;;;;5074471;28;20052;-57
2022/08/06 03:27:30;;;;;;;;;;;;;;;;;;5073391;28;20464;-57
2022/08/06 03:29:56;;;;;;;4.57;1.98;;;;;;;;;;5074238;28;19908;-56
2022/08/06 03:32:23;;;;;;;4.60;1.73;;;;;;;;;;5074650;28;20079;-57
2022/08/06 03:34:49;;;;;;;5.30;2.00;;;;;;;;;;5074088;28;20079;-56
2022/08/06 03:37:18;;;;;;;3.83;2.08;;;;;;;;;;5073939;28;20060;-54
2022/08/06 03:39:45;;;;;;;8.02;3.03;;;;;;;;;;5072226;28;20441;-57
2022/08/06 03:42:11;;;;;;;16.75;2.70;;;;;;;;;;5071079;28;20145;-57
2022/08/06 03:44:37;;;;;;;2.78;1.92;;;;;;;;;;5074062;28;20048;-57
2022/08/06 03:47:24;;;;;;;2.70;2.17;;;;;;;;;;5073987;28;20031;-56
2022/08/06 03:49:57;;;;;;;4.05;2.25;;;;;;;;;;5073865;28;20387;-57
2022/08/06 03:52:28;;;;;;;5.13;2.53;;;;;;;;;;5073463;28;20035;-53
2022/08/06 03:54:56;;;;;;;5.28;2.33;;;;;;;;;;5073755;28;20032;-54
2022/08/06 03:57:25;;;;;;;7.75;2.20;;;;;;;;;;5072248;28;20024;-55
2022/08/06 03:59:52;;;;;;;3.30;1.80;;;;;;;;;;5073900;28;20032;-55
2022/08/06 04:02:19;;;;;;;4.28;1.80;;;;;;;;;;5062361;28;20561;-54
2022/08/06 04:04:45;;;;;;;4.28;2.28;;;;;;;;;;5073673;28;20402;-57
2022/08/06 04:07:13;;;;;;;4.68;2.05;;;;;;;;;;5073840;28;20024;-56
2022/08/06 04:09:39;;;;;;;6.57;2.50;;;;;;;;;;5074096;28;20036;-57
2022/08/06 04:12:06;;;;;;;5.40;2.50;;;;;;;;;;5074130;28;20032;-55
2022/08/06 04:14:32;;;;;;;5.15;2.40;;;;;;;;;;5072581;28;20037;-57
2022/08/06 04:16:58;;;;;;;6.18;2.47;;;;;;;;;;5073800;28;20025;-54
2022/08/06 04:19:25;;;;;;;7.45;2.75;;;;;;;;;;5073833;28;20016;-56
2022/08/06 04:21:51;;;;;;;4.80;2.33;;;;;;;;;;5072471;28;20115;-56
2022/08/06 04:24:17;;;;;;;4.35;3.17;;;;;;;;;;5073649;28;20035;-55
2022/08/06 04:26:43;;;;;;;5.18;3.33;;;;;;;;;;5073512;28;20028;-54
2022/08/06 04:29:11;;;;;;;5.35;2.80;;;;;;;;;;5073071;28;20048;-56
2022/08/06 04:31:37;;;;;;;6.93;3.78;;;;;;;;;;5073448;28;20029;-57
2022/08/06 04:34:04;;;;;;;6.22;3.30;;;;;;;;;;5072378;28;20064;-56
2022/08/06 04:36:30;;;;;;;6.45;4.00;;;;;;;;;;5073323;28;20025;-55
2022/08/06 04:38:56;;;;;;;7.82;4.45;;;;;;;;;;5073311;28;20033;-57
2022/08/06 04:41:23;;;;;;;9.30;5.43;;;;;;;;;;5073489;28;20074;-56
2022/08/06 04:43:49;;;;;;;5.95;4.90;;;;;;;;;;5073302;28;20375;-56
2022/08/06 04:46:15;;;;;;;5.38;4.65;;;;;;;;;;5073188;28;20437;-57
2022/08/06 04:48:41;;;;;;;10.50;5.32;;;;;;;;;;5073255;28;20486;-57
2022/08/06 04:51:07;;;;;;;7.40;4.88;;;;;;;;;;5073131;28;20043;-57
2022/08/06 04:53:38;;;;;;;6.20;5.35;;;;;;;;;;5073183;28;20108;-56
2022/08/06 04:56:05;;;;;;;12.55;5.82;;;;;;;;;;5074114;28;20119;-56
2022/08/06 04:58:31;;;;;;;;;;;;;;;;;;5072138;28;20028;-55
2022/08/06 05:00:57;;;;;;;7.78;4.95;;;;;;;;;;5071789;28;19904;-56
2022/08/06 05:03:23;;;;;;;6.88;5.18;;;;;;;;;;5072989;28;20020;-56
2022/08/06 05:05:55;;;;;;;9.00;6.22;;;;;;;;;;5072890;28;20046;-55
2022/08/06 05:08:22;;;;;;;9.52;8.38;;;;;;;;;;5072693;28;20028;-56
2022/08/06 05:10:54;;;;;;;12.05;6.95;;;;;;;;;;5072815;28;20482;-55
2022/08/06 05:13:20;;;;;;;12.05;8.25;;;;;;;;;;5072906;28;20398;-56
2022/08/06 05:15:49;;;;;;;9.52;7.75;;;;;;;;;;5072946;28;20024;-52
2022/08/06 05:18:21;;;;;;;11.88;9.15;;;;;;;;;;5072286;28;20047;-56
2022/08/06 05:20:49;;;;;;;13.45;8.90;;;;;;;;;;5072621;28;20142;-54
2022/08/06 05:23:23;;;;;;;14.35;9.25;;;;;;;;;;5072506;28;20025;-52
2022/08/06 05:25:49;;;;;;;10.13;8.85;;;;;;;;;;5072407;28;20029;-52
2022/08/06 05:28:15;;;;;;;11.02;9.60;;;;;;;;;;5072331;28;20027;-55
2022/08/06 05:30:43;;;;;;;13.50;11.25;;;;;;;;;;5072309;28;20039;-54
2022/08/06 05:33:09;;;;;;;13.23;10.00;;;;;;;;;;5072658;28;20448;-55
2022/08/06 05:35:35;;;;;;;20.30;9.88;;;;;;;;;;5072216;28;20028;-55
2022/08/06 05:38:01;;;;;;;14.00;9.40;;;;;;;;;;5072090;28;20167;-54
2022/08/06 05:40:33;;;;;;;12.93;9.60;;;;;;;;;;5072123;28;20490;-52
2022/08/06 05:42:59;;;;;;;15.60;10.57;;;;;;;;;;5072697;28;20033;-54
2022/08/06 05:45:26;;;;;;;15.95;10.05;;;;;;;;;;5072102;28;20119;-54
2022/08/06 05:47:54;;;;;;;13.70;10.13;;;;;;;;;;5071888;28;20029;-54
2022/08/06 05:50:22;;;;;;;11.20;9.55;;;;;;;;;;5072141;28;20022;-54
2022/08/06 05:52:57;;;;;;;16.35;11.40;;;;;;;;;;5070780;28;20491;-56
2022/08/06 05:55:28;;;;;;;13.75;10.95;;;;;;;;;;5071925;28;20086;-56
2022/08/06 05:57:56;;;;;;;15.35;10.60;;;;;;;;;;5071737;28;20254;-53
2022/08/06 06:00:26;;;;;;;15.15;10.05;;;;;;;;;;5071863;28;20020;-55
2022/08/06 06:02:53;;;;;;;13.15;10.85;;;;;;;;;;5070728;28;20109;-54
2022/08/06 06:05:20;;;;;;;12.77;10.80;;;;;;;;;;5072089;28;20036;-57
2022/08/06 06:07:46;;;;;;;;;;;;;;;;;;5073133;28;20204;-60
2022/08/06 06:10:13;;;;;;;13.75;10.80;;;;;;;;;;5072791;28;19911;-56
2022/08/06 06:12:39;;;;;;;13.40;10.60;;;;;;;;;;5072672;28;20059;-58
2022/08/06 06:15:07;;;;;;;11.98;10.88;;;;;;;;;;5072230;28;20024;-59
2022/08/06 06:17:48;;;;;;;16.05;10.65;;;;;;;;;;5071872;28;20024;-58
2022/08/06 06:20:19;;;;;;;16.00;9.68;;;;;;;;;;5072204;28;20029;-57
2022/08/06 06:22:45;;;;;;;12.75;10.00;;;;;;;;;;5071589;28;20149;-57
2022/08/06 06:25:23;;;;;;;13.65;10.80;;;;;;;;;;5071484;28;20048;-57
2022/08/06 06:27:53;;;;;;;12.25;10.88;;;;;;;;;;5071181;28;20055;-55
2022/08/06 06:30:24;;;;;;;13.77;10.52;;;;;;;;;;5071554;28;20318;-57
2022/08/06 06:32:55;;;;;;;15.52;12.15;;;;;;;;;;5071455;28;20029;-55
2022/08/06 06:35:21;;;;;;;12.82;11.50;;;;;;;;;;5053253;28;20032;-57
2022/08/06 06:37:55;;;;;;;12.63;10.80;;;;;;;;;;5071230;28;20154;-55
2022/08/06 06:40:39;;;;;;;12.82;11.52;;;;;;;;;;5071396;28;20025;-56
2022/08/06 06:43:38;;;;;;;20.23;11.38;;;;;;;;;;5071483;28;20173;-57
2022/08/06 06:46:19;;;;;;;15.20;10.60;;;;;;;;;;5026670;28;20043;-57
2022/08/06 06:48:47;;;;;;;12.45;9.75;;;;;;;;;;5071509;28;20573;-57
2022/08/06 06:51:39;;;;;;;11.77;7.90;;;;;;;;;;5071418;28;20028;-54
2022/08/06 06:54:05;;;;;;;11.05;9.35;;;;;;;;;;5043547;28;20068;-54
2022/08/06 06:56:36;;;;;;;12.93;9.15;;;;;;;;;;5075305;28;20033;-58
2022/08/06 06:59:07;;;;;;;11.15;7.70;;;;;;;;;;5075197;28;20383;-56
2022/08/06 07:01:33;;;;;;;11.18;7.47;;;;;;;;;;5075362;28;20035;-53
2022/08/06 07:04:00;;;;;;;11.32;6.90;;;;;;;;;;5075171;28;20028;-57
2022/08/06 07:06:27;;;;;;;8.63;6.50;;;;;;;;;;5075015;28;20150;-54
2022/08/06 07:08:54;;;;;;;6.72;5.97;;;;;;;;;;5073847;28;20033;-56
2022/08/06 07:11:23;;;;;;;9.43;6.18;;;;;;;;;;5075112;28;20036;-55
2022/08/06 07:13:50;;;;;;;15.65;6.95;;;;;;;;;;5074959;28;20025;-56
2022/08/06 07:16:17;;;;;;;15.02;7.43;;;;;;;;;;5074856;28;20029;-56
2022/08/06 07:18:45;;;;;;;9.52;6.78;;;;;;;;;;5074780;28;20107;-55
2022/08/06 07:21:13;;;;;;;9.45;6.63;;;;;;;;;;5074845;28;20033;-56
2022/08/06 07:23:39;;;;;;;11.75;6.80;;;;;;;;;;5075054;28;20446;-53
2022/08/06 07:26:05;;;;;;;8.45;6.03;;;;;;;;;;5074636;28;20036;-56
2022/08/06 07:28:32;;;;;;;12.07;6.22;;;;;;;;;;5073384;28;20021;-56
2022/08/06 07:30:58;;;;;;;;;;;;;;;;;;5075090;28;20509;-57
2022/08/06 07:33:24;;;;;;;10.75;5.93;;;;;;;;;;5074651;28;19904;-57
2022/08/06 07:35:51;;;;;;;19.35;6.28;;;;;;;;;;5074494;28;20028;-58
2022/08/06 07:38:19;;;;;;;8.35;6.03;;;;;;;;;;5074259;28;20029;-59
2022/08/06 07:40:56;;;;;;;16.08;5.57;;;;;;;;;;5074484;28;20031;-57
2022/08/06 07:43:23;;;;;;;26.00;6.80;;;;;;;;;;5074554;28;20071;-56
2022/08/06 07:45:50;;;;;;;11.18;5.45;;;;;;;;;;5074407;28;20032;-59
2022/08/06 07:48:18;;;;;;;14.27;5.50;;;;;;;;;;5074097;28;20029;-59
2022/08/06 07:50:45;;;;;;;15.07;6.43;;;;;;;;;;5074419;28;20021;-59
2022/08/06 07:53:11;;;;;;;9.57;5.20;;;;;;;;;;5074192;28;20036;-58
2022/08/06 07:55:38;;;;;;;9.27;6.03;;;;;;;;;;5074037;28;20546;-57
2022/08/06 07:58:05;;;;;;;8.95;5.78;;;;;;;;;;5073913;28;20540;-58
2022/08/06 08:00:31;;;;;;;7.35;6.03;;;;;;;;;;5074211;28;20048;-56
2022/08/06 08:08:29;;;;;;;6.60;5.20;;;;;;;;;;5074148;28;20039;-57
2022/08/06 08:10:56;;;;;;;8.88;5.15;;;;;;;;;;5073974;28;20406;-57
2022/08/06 08:13:21;;;;;;;;;;;;;;;;;;5074376;28;20036;-57
2022/08/06 08:15:48;;;;;;;7.70;5.68;;;;;;;;;;5073843;28;20432;-57
2022/08/06 08:18:14;;;;;;;8.57;4.82;;;;;;;;;;5073465;28;20040;-57
2022/08/06 08:20:41;;;;;;;4.63;4.13;;;;;;;;;;5073745;28;20021;-57
2022/08/06 08:23:09;;;;;;;7.03;4.28;;;;;;;;;;5072495;28;20074;-55
2022/08/06 08:25:35;;;;;;;7.85;5.15;;;;;;;;;;5073770;28;20028;-55
2022/08/06 08:28:01;;;;;;;9.75;4.95;;;;;;;;;;5073468;28;20020;-59
2022/08/06 08:30:27;;;;;;;5.93;4.57;;;;;;;;;;5073666;28;20028;-57
2022/08/06 08:32:53;;;;;;;8.77;5.03;;;;;;;;;;5073432;28;20468;-59
2022/08/06 08:35:19;;;;;;;7.07;4.10;;;;;;;;;;5073419;28;20116;-58
2022/08/06 08:37:45;;;;;;;5.72;4.07;;;;;;;;;;5073213;28;20036;-59
2022/08/06 08:40:12;;;;;;;4.63;3.28;;;;;;;;;;5072052;28;20020;-58
2022/08/06 08:42:43;;;;;;;3.08;2.70;;;;;;;;;;5073452;28;20020;-57
2022/08/06 08:45:10;;;;;;;8.70;3.08;;;;;;;;;;5073305;28;20025;-56
2022/08/06 08:47:38;;;;;;;4.53;3.33;;;;;;;;;;5073401;28;20500;-57
2022/08/06 08:50:04;;;;;;;11.15;3.20;;;;;;;;;;5071829;28;20056;-57
2022/08/06 08:52:33;;;;;;;8.35;2.92;;;;;;;;;;5073188;28;20024;-59
2022/08/06 08:55:03;;;;;;;11.55;3.55;;;;;;;;;;5072920;28;20048;-59
2022/08/06 08:57:30;;;;;;;7.30;2.72;;;;;;;;;;5073094;28;20402;-58
2022/08/06 08:59:57;;;;;;;8.65;2.65;;;;;;;;;;5072928;28;20096;-55
2022/08/06 09:02:23;;;;;;;10.52;2.15;;;;;;;;;;5072967;28;20542;-56
2022/08/06 09:04:50;;;;;;;6.75;2.58;;;;;;;;;;5071668;28;20025;-58
2022/08/06 09:07:16;;;;;;;7.55;2.35;;;;;;;;;;5072716;28;20020;-56
2022/08/06 09:09:42;;;;;;;9.95;3.75;;;;;;;;;;5072803;28;20024;-57
2022/08/06 09:12:08;;;;;;;3.30;2.50;;;;;;;;;;5072842;28;20103;-57
2022/08/06 09:14:38;;;;;;;3.40;2.80;;;;;;;;;;5072591;28;20056;-56
2022/08/06 09:17:05;;;;;;;9.45;3.53;;;;;;;;;;5071938;28;20155;-55
2022/08/06 09:19:31;;;;;;;3.65;2.17;;;;;;;;;;5072593;28;20107;-57
2022/08/06 09:21:57;;;;;;;3.15;2.50;;;;;;;;;;5072527;28;20027;-57
2022/08/06 09:24:24;;;;;;;5.95;2.53;;;;;;;;;;5071223;28;20394;-57
2022/08/06 09:26:50;;;;;;;;;;;;;;;;;;5072684;28;20032;-57
2022/08/06 09:29:22;;;;;;;6.88;2.50;;;;;;;;;;5072550;28;20000;-56
2022/08/06 09:31:48;;;;;;;7.00;2.60;;;;;;;;;;5072411;28;20490;-56
2022/08/06 09:34:14;;;;;;;11.30;2.50;;;;;;;;;;5072351;28;20028;-57
2022/08/06 09:36:44;;;;;;;4.10;2.92;;;;;;;;;;5072007;28;20064;-57
2022/08/06 09:39:10;;;;;;;5.18;3.35;;;;;;;;;;5072098;28;20024;-56
2022/08/06 09:41:45;;;;;;;4.63;2.83;;;;;;;;;;5071264;28;20438;-56
2022/08/06 09:44:11;;;;;;;4.00;3.17;;;;;;;;;;5072110;28;20017;-57
2022/08/06 09:46:43;;;;;;;10.38;3.80;;;;;;;;;;5071935;28;20036;-56
2022/08/06 09:49:10;;;;;;;4.95;3.50;;;;;;;;;;5071945;28;20032;-58
2022/08/06 09:51:37;;;;;;;5.13;3.35;;;;;;;;;;5072142;28;20031;-53
2022/08/06 09:54:05;;;;;;;5.15;3.35;;;;;;;;;;5071738;28;20425;-56
2022/08/06 09:56:31;;;;;;;9.18;3.50;;;;;;;;;;5071864;28;20029;-57
2022/08/06 09:58:58;;;;;;;13.77;2.80;;;;;;;;;;5071701;28;20029;-57
2022/08/06 10:01:24;;;;;;;3.97;2.20;;;;;;;;;;5070764;28;20425;-55
2022/08/06 10:03:52;;;;;;;11.07;2.92;;;;;;;;;;5071918;28;20494;-56
2022/08/06 10:06:20;;;;;;;5.82;2.10;;;;;;;;;;5071746;28;20013;-57
2022/08/06 10:08:47;;;;;;;8.55;2.30;;;;;;;;;;5072069;28;20028;-56
2022/08/06 10:11:13;;;;;;;3.75;2.88;;;;;;;;;;5071822;28;20029;-56
2022/08/06 10:13:39;;;;;;;6.95;2.30;;;;;;;;;;5071791;28;20056;-56
2022/08/06 10:16:26;;;;;;;5.68;2.08;;;;;;;;;;5071576;28;20032;-57
2022/08/06 10:18:53;;;;;;;6.13;2.67;;;;;;;;;;5071662;28;20363;-57
2022/08/06 10:21:19;;;;;;;;;;;;;;;;;;5070741;28;20031;-57
2022/08/06 10:23:47;;;;;;;6.53;2.97;;;;;;;;;;5071629;28;19908;-55
2022/08/06 10:26:14;;;;;;;4.78;2.70;;;;;;;;;;5071608;28;20035;-55
2022/08/06 10:28:42;;;;;;;4.95;2.60;;;;;;;;;;5070712;28;20414;-57
2022/08/06 10:31:10;;;;;;;8.40;2.97;;;;;;;;;;5070411;28;20483;-56
2022/08/06 10:33:45;;;;;;;3.90;3.00;;;;;;;;;;5071520;28;20029;-56
2022/08/06 10:36:13;;;;;;;6.03;2.60;;;;;;;;;;5071306;28;20024;-57
2022/08/06 10:38:41;;;;;;;7.30;2.78;;;;;;;;;;5071797;28;20033;-57
2022/08/06 10:41:10;;;;;;;5.85;2.65;;;;;;;;;;5071420;28;20115;-57
2022/08/06 10:43:37;;;;;;;4.30;2.28;;;;;;;;;;5071488;28;20537;-57
2022/08/06 10:46:12;;;;;;;3.45;1.73;;;;;;;;;;5071375;28;20023;-57
2022/08/06 10:48:40;;;;;;;3.10;2.17;;;;;;;;;;5071205;28;20107;-56
2022/08/06 10:51:08;;;;;;;4.18;1.92;;;;;;;;;;5069267;28;20028;-54
2022/08/06 10:53:34;;;;;;;2.13;1.80;;;;;;;;;;5070554;28;20029;-56
2022/08/06 10:56:02;;;;;;;3.78;1.80;;;;;;;;;;5071458;28;20044;-57
2022/08/06 10:58:29;;;;;;;2.40;1.58;;;;;;;;;;5071021;28;20021;-56
2022/08/06 11:00:56;;;;;;;3.70;1.95;;;;;;;;;;5070192;28;20025;-53
2022/08/06 11:03:36;;;;;;;4.50;1.75;;;;;;;;;;5066135;28;20078;-56
2022/08/06 11:06:12;;;;;;;5.72;1.90;;;;;;;;;;5066462;28;20103;-56
2022/08/06 11:08:41;;;;;;;2.60;2.25;;;;;;;;;;5065063;28;20460;-57
2022/08/06 11:11:13;;;;;;;2.28;1.80;;;;;;;;;;5065787;28;20052;-56
2022/08/06 11:13:47;;;;;;;3.63;1.98;;;;;;;;;;5070319;28;20501;-58
2022/08/06 11:16:23;;;;;;;5.70;1.98;;;;;;;;;;5066776;28;20499;-55
2022/08/06 11:18:59;;;;;;;4.47;2.20;;;;;;;;;;5061150;28;20098;-57
2022/08/06 11:21:55;;;;;;;2.87;2.07;;;;;;;;;;5070700;28;20360;-57
2022/08/06 11:24:21;;;;;;;3.30;1.83;;;;;;;;;;5053922;28;20259;-56
2022/08/06 11:26:47;;;;;;;2.58;2.08;;;;;;;;;;5070836;28;20502;-56
2022/08/06 11:29:13;;;;;;;;;;;;;;;;;;5071121;28;20463;-54
2022/08/06 11:31:39;;;;;;;8.77;2.17;;;;;;;;;;5070992;28;19991;-56
2022/08/06 11:34:07;;;;;;;2.42;1.90;;;;;;;;;;5070627;28;20033;-58
2022/08/06 11:36:45;;;;;;;4.57;1.73;;;;;;;;;;5070291;28;20031;-56
2022/08/06 11:39:11;;;;;;;12.75;2.38;;;;;;;;;;5052194;28;20033;-54
2022/08/06 11:41:44;;;;;;;2.47;1.90;;;;;;;;;;5054490;28;20021;-57
2022/08/06 11:44:12;;;;;;;2.45;1.70;;;;;;;;;;5054469;28;20029;-56
2022/08/06 11:46:39;;;;;;;9.10;2.20;;;;;;;;;;5069972;28;20047;-57
2022/08/06 11:49:14;;;;;;;2.33;1.90;;;;;;;;;;5063533;28;20031;-57
2022/08/06 11:51:40;;;;;;;6.43;2.20;;;;;;;;;;5074318;28;20172;-55
2022/08/06 11:54:06;;;;;;;;;;;;;;;;;;5074107;28;20047;-55
2022/08/06 11:56:32;;;;;;;2.65;1.73;;;;;;;;;;5073568;28;19912;-58
2022/08/06 11:59:14;;;;;;;3.55;1.80;;;;;;;;;;5073105;28;20493;-57
2022/08/06 12:01:47;;;;;;;6.15;2.00;;;;;;;;;;5074216;28;20052;-56
2022/08/06 12:04:31;;;;;;;1.85;1.73;;;;;;;;;;5054048;28;20032;-56
2022/08/06 12:07:20;;;;;;;3.20;1.73;;;;;;;;;;5061493;28;20108;-57
2022/08/06 12:09:47;;;;;;;6.57;1.77;;;;;;;;;;5067731;28;20020;-56
2022/08/06 12:12:28;;;;;;;3.40;1.98;;;;;;;;;;5073945;28;20059;-54
2022/08/06 12:14:55;;;;;;;3.33;2.50;;;;;;;;;;5073826;28;20028;-57
2022/08/06 12:17:25;;;;;;;4.07;1.92;;;;;;;;;;5073268;28;20100;-57
2022/08/06 12:19:53;;;;;;;2.15;1.80;;;;;;;;;;5073501;28;20411;-55
2022/08/06 12:22:20;;;;;;;4.65;2.13;;;;;;;;;;5073660;28;20482;-55
2022/08/06 12:24:51;;;;;;;3.65;1.90;;;;;;;;;;5073740;28;20021;-57
2022/08/06 12:27:18;;;;;;;7.40;1.90;;;;;;;;;;5073488;28;20064;-58
2022/08/06 12:29:44;;;;;;;6.47;1.73;;;;;;;;;;5073299;28;20029;-55
2022/08/06 12:32:20;;;;;;;4.85;2.10;;;;;;;;;;5073682;28;20025;-56
2022/08/06 12:34:46;;;;;;;3.03;1.90;;;;;;;;;;5073581;28;20021;-57
2022/08/06 12:37:12;;;;;;;5.63;2.35;;;;;;;;;;5073323;28;20028;-57
2022/08/06 12:42:25;;;;;;;2.55;2.17;;;;;;;;;;5073442;28;20035;-56
2022/08/06 12:44:51;;;;;;;5.70;1.90;;;;;;;;;;5073103;28;20060;-55
2022/08/06 12:47:17;;;;;;;5.18;1.80;;;;;;;;;;5072695;28;20027;-56
2022/08/06 12:49:43;;;;;;;5.65;2.13;;;;;;;;;;5072963;28;20052;-56
2022/08/06 12:52:17;;;;;;;3.78;1.70;;;;;;;;;;5072531;28;20025;-57
2022/08/06 12:54:43;;;;;;;7.88;2.00;;;;;;;;;;5073085;28;20035;-55
2022/08/06 12:57:19;;;;;;;3.25;1.90;;;;;;;;;;5072325;28;20024;-57
2022/08/06 12:59:45;;;;;;;1.90;1.70;;;;;;;;;;5072358;28;20020;-57
2022/08/06 13:02:14;;;;;;;3.83;1.95;;;;;;;;;;5071980;28;20565;-57
2022/08/06 13:04:43;;;;;;;2.05;1.85;;;;;;;;;;5072767;28;20079;-55
2022/08/06 13:07:09;;;;;;;4.78;2.15;;;;;;;;;;5072728;28;20024;-57
2022/08/06 13:09:36;;;;;;;9.23;2.00;;;;;;;;;;5072718;28;20023;-57
2022/08/06 13:12:31;;;;;;;4.63;2.00;;;;;;;;;;5072498;28;20032;-55
2022/08/06 13:14:59;;;;;;;3.17;2.13;;;;;;;;;;5055510;28;20037;-56
2022/08/06 13:17:26;;;;;;;4.93;2.67;;;;;;;;;;5072439;28;20494;-56
2022/08/06 13:19:55;;;;;;;5.22;1.95;;;;;;;;;;5072440;28;20394;-56
2022/08/06 13:22:22;;;;;;;4.07;2.35;;;;;;;;;;5072392;28;20020;-57
2022/08/06 13:24:49;;;;;;;3.25;2.08;;;;;;;;;;5072406;28;20056;-57
2022/08/06 13:27:15;;;;;;;7.72;2.03;;;;;;;;;;5072303;28;20078;-56
2022/08/06 13:30:00;;;;;;;3.67;2.03;;;;;;;;;;5072247;28;20390;-57
2022/08/06 13:32:27;;;;;;;4.38;2.03;;;;;;;;;;5072156;28;20025;-56
2022/08/06 13:34:57;;;;;;;2.40;2.08;;;;;;;;;;5072333;28;20040;-56
2022/08/06 13:37:43;;;;;;;2.05;1.85;;;;;;;;;;5072021;28;20518;-55
2022/08/06 13:40:09;;;;;;;4.50;1.85;;;;;;;;;;5064497;28;20090;-56
